Aviation Digital Data Service (ADDS)

Output produced by METARs form (0723 UTC 31 July 2014)
found at http://www.aviationweather.gov/adds/metars/
 
KMIV 310654Z AUTO 00000KT 9SM CLR 14/13 A3008 RMK AO2 SLP185 T01390133
KMIV 310520Z 3106/0106 VRB03KT P6SM SCT080 
     FM311500 22007KT P6SM SCT050 
     FM312200 VRB04KT P6SM FEW060 BKN200